POP weather

Gregorio Luperon International Airport
Puerto Plata, Puerto Plata Province, Dominican Republic

Public forecast

Using degrees Celsius for public forecast. Weather courtesy of forecast.io.

Current aviation weather report (METAR) for Gregorio Luperon International Airport

Retrieved 2019/11/13 14:00 UTC (6 minutes ago):

MDPP 131400Z 35005KT 9999 FEW020 30/24 Q1013

Aviation forecast (TAF) for Gregorio Luperon International Airport

Retrieved 2019/11/13 12:23 UTC (2 hours ago):

TAF MDPP 131000Z 1312/1412 12008KT 9999 SCT020 PROB30 1312/1318 8000 -SH BKN018 BECMG 1315/1317 06015KT